Time;durP1;ratioP1;P1;durP2;ratioP2;P2;SDS_P1;SDS_P2;PMS_P1;PMS_P2;Temp;Humidity;BMP_temperature;BMP_pressure;BME280_temperature;BME280_humidity;BME280_pressure;Samples;Min_cycle;Max_cycle;Signal;HPM_P1;HPM_P2
2021/09/01 00:00:08;;;;;;;44.97;6.10;;;34.40;51.10;;;;;;4879860;29;20156;-65
2021/09/01 00:02:34;;;;;;;38.15;5.78;;;34.50;51.00;;;;;;4883147;29;20088;-64
2021/09/01 00:05:01;;;;;;;31.80;4.50;;;34.50;50.90;;;;;;4875032;29;20077;-65
2021/09/01 00:07:27;;;;;;;34.90;4.50;;;34.50;51.10;;;;;;4874514;29;20074;-64
2021/09/01 00:58:20;;;;;;;19.95;4.15;;;34.10;51.80;;;;;;5081266;27;20553;-56
2021/09/01 01:01:15;;;;;;;20.25;4.93;;;34.00;51.90;;;;;;5078380;28;20073;-57
2021/09/01 01:03:34;;;;;;;21.08;4.93;;;33.90;52.40;;;;;;5075468;28;20092;-55
2021/09/01 01:06:00;;;;;;;20.83;4.43;;;33.80;52.10;;;;;;5076216;28;20081;-58
2021/09/01 01:08:33;;;;;;;21.67;4.78;;;33.80;52.50;;;;;;5080639;28;20076;-55
2021/09/01 01:11:00;;;;;;;18.80;4.30;;;33.80;52.10;;;;;;5083135;28;20203;-57
2021/09/01 01:13:28;;;;;;;25.10;6.30;;;33.70;52.40;;;;;;5079183;28;20109;-53
2021/09/01 01:15:58;;;;;;;23.20;4.15;;;33.80;51.90;;;;;;5076959;28;20089;-55
2021/09/01 01:18:25;;;;;;;37.38;5.10;;;34.00;51.60;;;;;;5081638;28;20088;-57
2021/09/01 01:20:53;;;;;;;32.63;5.28;;;34.20;51.10;;;;;;5075553;28;20073;-58
2021/09/01 01:23:26;;;;;;;39.97;4.93;;;34.20;51.10;;;;;;5081703;28;20080;-56
2021/09/01 01:25:56;;;;;;;45.20;5.68;;;34.10;51.10;;;;;;5077460;28;20178;-57
2021/09/01 01:28:23;;;;;;;61.40;6.15;;;34.30;50.90;;;;;;5079653;28;20066;-57
2021/09/01 01:30:49;;;;;;;47.33;5.88;;;34.30;50.50;;;;;;5078533;28;20215;-55
2021/09/01 01:33:16;;;;;;;54.90;7.05;;;34.40;50.70;;;;;;5074634;28;20161;-54
2021/09/01 01:35:45;;;;;;;48.33;6.35;;;34.40;50.20;;;;;;5078648;28;20100;-55
2021/09/01 01:38:15;;;;;;;59.65;7.18;;;34.30;50.10;;;;;;5079289;28;20073;-54
2021/09/01 01:40:43;;;;;;;60.63;6.57;;;34.30;50.00;;;;;;5074345;28;20503;-55
2021/09/01 01:43:10;;;;;;;72.90;7.70;;;34.20;50.00;;;;;;5079356;28;20069;-57
2021/09/01 01:45:45;;;;;;;64.15;6.90;;;34.10;50.00;;;;;;5071583;28;20191;-58
2021/09/01 01:48:14;;;;;;;45.85;5.75;;;34.10;50.00;;;;;;5082990;28;20532;-56
2021/09/01 01:50:43;;;;;;;74.10;8.70;;;33.90;50.40;;;;;;5078238;28;20085;-56
2021/09/01 01:53:10;;;;;;;93.10;9.93;;;33.80;51.80;;;;;;5072614;28;20156;-58
2021/09/01 01:55:36;;;;;;;119.32;10.65;;;33.80;53.80;;;;;;5076730;28;20074;-57
2021/09/01 01:58:03;;;;;;;126.35;10.80;;;33.40;55.10;;;;;;5072140;28;20120;-59
2021/09/01 02:00:30;;;;;;;107.00;10.45;;;33.20;56.20;;;;;;5062679;28;20134;-52
2021/09/01 02:02:57;;;;;;;87.28;10.68;;;33.10;56.50;;;;;;5063401;28;20170;-59
2021/09/01 02:05:25;;;;;;;77.13;9.00;;;33.20;57.20;;;;;;5066296;28;20076;-56
2021/09/01 02:07:52;;;;;;;85.57;9.45;;;33.20;57.60;;;;;;5067220;28;20085;-58
2021/09/01 02:10:21;;;;;;;87.05;9.75;;;33.10;58.00;;;;;;5067057;28;20073;-54
2021/09/01 02:12:48;;;;;;;79.93;9.48;;;33.10;59.50;;;;;;5061418;28;20101;-56
2021/09/01 02:15:15;;;;;;;73.60;7.68;;;32.80;61.20;;;;;;5068434;28;20065;-52
2021/09/01 02:17:42;;;;;;;86.43;8.63;;;32.80;61.60;;;;;;5064776;28;20148;-58
2021/09/01 02:20:11;;;;;;;88.00;10.13;;;32.70;62.40;;;;;;5069205;28;20566;-58
2021/09/01 02:22:39;;;;;;;73.55;8.75;;;32.60;62.70;;;;;;5063015;28;20589;-58
2021/09/01 02:25:06;;;;;;;89.15;9.18;;;32.70;62.80;;;;;;5063105;28;20076;-56
2021/09/01 02:27:33;;;;;;;76.05;9.32;;;32.60;63.10;;;;;;5064930;28;20081;-58
2021/09/01 02:29:59;;;;;;;85.72;9.95;;;32.50;63.80;;;;;;5064092;28;20538;-57
2021/09/01 02:32:26;;;;;;;69.82;9.15;;;32.10;68.20;;;;;;5062296;28;20077;-59
2021/09/01 02:34:53;;;;;;;63.58;8.23;;;31.30;72.10;;;;;;5061955;28;20069;-59
2021/09/01 02:37:19;;;;;;;65.68;9.77;;;30.90;73.00;;;;;;5060097;28;20109;-57
2021/09/01 02:39:46;;;;;;;54.25;8.90;;;30.80;73.40;;;;;;5061395;28;20069;-57
2021/09/01 02:42:12;;;;;;;73.82;11.13;;;30.80;75.80;;;;;;5063820;28;20517;-58
2021/09/01 02:44:39;;;;;;;89.07;13.35;;;30.80;85.50;;;;;;5064686;28;20115;-58
2021/09/01 02:47:05;;;;;;;117.25;18.05;;;30.60;90.40;;;;;;5062737;28;20525;-58
2021/09/01 02:49:32;;;;;;;81.13;14.85;;;30.30;95.20;;;;;;5064446;28;20081;-56
2021/09/01 02:51:59;;;;;;;55.58;12.02;;;29.90;97.00;;;;;;5064926;28;20077;-56
2021/09/01 02:54:25;;;;;;;43.25;10.30;;;29.20;97.10;;;;;;5066767;28;20172;-56
2021/09/01 02:56:52;;;;;;;52.50;9.88;;;28.50;99.00;;;;;;5062331;28;20113;-56
2021/09/01 02:59:18;;;;;;;48.35;10.27;;;28.30;99.90;;;;;;5065225;28;20073;-56
2021/09/01 03:01:45;;;;;;;62.63;12.27;;;28.10;99.90;;;;;;5061089;28;20073;-54
2021/09/01 03:04:11;;;;;;;64.15;11.27;;;27.80;99.90;;;;;;5062030;28;20077;-56
2021/09/01 03:06:38;;;;;;;36.42;7.18;;;27.70;99.90;;;;;;5059406;28;20095;-57
2021/09/01 03:09:04;;;;;;;17.55;4.15;;;27.50;99.90;;;;;;5062328;28;20429;-58
2021/09/01 03:11:31;;;;;;;15.77;4.60;;;27.30;99.90;;;;;;5061069;28;20076;-60
2021/09/01 03:13:57;;;;;;;14.48;4.43;;;27.40;99.90;;;;;;5064249;28;20084;-60
2021/09/01 03:16:24;;;;;;;16.98;4.22;;;27.20;99.90;;;;;;5065019;28;20101;-59
2021/09/01 03:18:50;;;;;;;15.30;3.97;;;27.20;99.90;;;;;;5064760;28;20083;-60
2021/09/01 03:21:17;;;;;;;13.75;4.50;;;27.00;99.90;;;;;;5063117;28;20167;-60
2021/09/01 03:23:43;;;;;;;18.10;5.32;;;26.90;99.90;;;;;;5059199;28;20091;-58
2021/09/01 03:26:10;;;;;;;26.27;5.82;;;26.80;99.90;;;;;;5063547;28;20448;-59
2021/09/01 03:28:36;;;;;;;19.50;4.63;;;26.80;99.90;;;;;;5062322;28;20088;-60
2021/09/01 03:31:03;;;;;;;22.38;5.50;;;26.80;99.90;;;;;;5061469;28;20080;-60
2021/09/01 03:33:29;;;;;;;18.88;5.30;;;26.90;99.90;;;;;;5065713;28;20085;-61
2021/09/01 03:35:56;;;;;;;20.88;5.63;;;26.90;99.90;;;;;;5066057;28;20089;-60
2021/09/01 03:38:23;;;;;;;21.25;5.45;;;26.90;99.90;;;;;;5062514;28;20589;-59
2021/09/01 03:40:55;;;;;;;19.75;4.55;;;26.90;99.90;;;;;;5061343;28;20156;-58
2021/09/01 03:43:21;;;;;;;15.38;3.60;;;26.90;99.90;;;;;;5061517;28;20122;-57
2021/09/01 03:45:48;;;;;;;14.95;3.55;;;26.80;99.90;;;;;;5059235;28;20082;-58
2021/09/01 03:48:15;;;;;;;17.45;4.00;;;26.80;99.90;;;;;;5062960;28;20085;-59
2021/09/01 03:50:41;;;;;;;18.35;3.88;;;26.80;99.90;;;;;;5059196;28;20487;-57
2021/09/01 03:53:08;;;;;;;12.57;3.75;;;26.90;99.90;;;;;;5058902;28;20073;-57
2021/09/01 03:55:34;;;;;;;15.82;4.47;;;26.90;99.90;;;;;;5060306;28;20082;-56
2021/09/01 03:58:01;;;;;;;12.07;3.28;;;26.90;99.90;;;;;;5062130;28;20208;-58
2021/09/01 04:00:27;;;;;;;11.02;3.20;;;26.70;99.90;;;;;;5058974;28;20072;-59
2021/09/01 04:02:54;;;;;;;16.23;4.10;;;26.80;99.90;;;;;;5062148;28;20077;-57
2021/09/01 04:05:20;;;;;;;20.73;4.57;;;26.90;99.90;;;;;;5062099;28;20073;-59
2021/09/01 04:07:47;;;;;;;18.98;5.07;;;27.00;99.90;;;;;;5060087;28;20171;-57
2021/09/01 04:10:14;;;;;;;19.10;5.07;;;27.00;99.90;;;;;;5061140;28;20079;-60
2021/09/01 04:12:40;;;;;;;22.42;5.63;;;26.90;99.90;;;;;;5064728;28;20161;-60
2021/09/01 04:15:07;;;;;;;18.38;4.80;;;27.00;99.90;;;;;;5060334;28;20115;-59
2021/09/01 04:17:40;;;;;;;17.45;4.95;;;27.00;99.90;;;;;;5062326;28;20181;-59
2021/09/01 04:20:07;;;;;;;14.45;4.13;;;27.10;99.90;;;;;;5058728;28;20801;-60
2021/09/01 04:22:34;;;;;;;18.85;5.47;;;27.10;99.90;;;;;;5065266;28;20085;-62
2021/09/01 04:25:01;;;;;;;25.45;3.92;;;27.10;99.90;;;;;;5060368;28;20126;-59
2021/09/01 04:27:27;;;;;;;24.38;4.35;;;27.00;99.90;;;;;;5060807;28;20081;-59
2021/09/01 04:29:54;;;;;;;16.02;3.72;;;27.00;99.90;;;;;;5058319;28;20155;-56
2021/09/01 04:32:20;;;;;;;21.33;4.53;;;27.10;99.90;;;;;;5064045;28;20077;-60
2021/09/01 04:34:47;;;;;;;24.30;5.97;;;27.10;99.90;;;;;;5060509;28;20073;-58
2021/09/01 04:37:14;;;;;;;30.55;5.00;;;27.20;99.90;;;;;;5061906;28;20093;-58
2021/09/01 04:39:40;;;;;;;34.50;6.35;;;27.20;99.90;;;;;;5057629;28;20069;-61
2021/09/01 04:42:07;;;;;;;27.05;6.85;;;27.20;99.90;;;;;;5063245;28;20080;-60
2021/09/01 04:44:33;;;;;;;33.65;8.18;;;27.20;99.90;;;;;;5058942;28;20076;-55
2021/09/01 04:47:00;;;;;;;43.95;12.88;;;27.30;99.90;;;;;;5056408;28;20067;-58
2021/09/01 04:49:26;;;;;;;50.33;11.48;;;27.20;99.90;;;;;;5059277;28;20151;-60
2021/09/01 04:51:53;;;;;;;48.67;9.05;;;27.30;99.90;;;;;;5060824;28;20091;-59
2021/09/01 04:54:20;;;;;;;44.03;8.90;;;27.40;99.90;;;;;;5059631;28;20070;-57
2021/09/01 04:56:46;;;;;;;47.30;8.35;;;27.50;99.90;;;;;;5059431;28;20208;-57
2021/09/01 04:59:13;;;;;;;37.58;7.25;;;27.50;99.90;;;;;;5060427;28;20529;-58
2021/09/01 05:01:39;;;;;;;46.45;9.30;;;27.40;99.90;;;;;;5062865;28;20136;-58
2021/09/01 05:04:06;;;;;;;35.22;7.28;;;27.40;99.90;;;;;;5058494;28;20073;-53
2021/09/01 05:06:32;;;;;;;37.80;7.43;;;27.40;99.90;;;;;;5058896;28;20076;-54
2021/09/01 05:08:59;;;;;;;44.85;8.25;;;27.40;99.90;;;;;;5064876;28;20070;-55
2021/09/01 05:11:25;;;;;;;44.45;7.60;;;27.30;99.90;;;;;;5065663;28;20168;-59
2021/09/01 05:13:52;;;;;;;38.25;7.78;;;27.40;99.90;;;;;;5060870;28;20077;-60
2021/09/01 05:16:18;;;;;;;40.22;7.38;;;27.30;99.90;;;;;;5060292;28;20101;-58
2021/09/01 05:18:45;;;;;;;47.13;7.70;;;27.40;99.90;;;;;;5059046;28;20073;-56
2021/09/01 05:21:14;;;;;;;32.05;6.32;;;27.40;99.90;;;;;;5059368;28;20151;-54
2021/09/01 05:23:42;;;;;;;38.10;7.32;;;27.40;99.90;;;;;;5063458;28;20066;-55
2021/09/01 05:26:09;;;;;;;44.05;9.38;;;27.40;99.90;;;;;;5064405;28;20445;-56
2021/09/01 05:28:37;;;;;;;43.63;8.50;;;27.40;99.90;;;;;;5061411;28;20082;-57
2021/09/01 05:31:06;;;;;;;46.70;9.57;;;27.50;99.90;;;;;;5057702;28;20108;-57
2021/09/01 05:33:36;;;;;;;39.13;7.30;;;27.40;99.90;;;;;;5062642;28;20074;-57
2021/09/01 05:36:05;;;;;;;30.25;5.90;;;27.50;99.90;;;;;;5064966;28;20180;-58
2021/09/01 05:38:34;;;;;;;29.42;6.75;;;27.50;99.90;;;;;;5062688;28;20484;-56
2021/09/01 05:41:03;;;;;;;40.97;7.68;;;27.40;99.90;;;;;;5065568;28;20545;-56
2021/09/01 05:43:30;;;;;;;33.20;7.40;;;27.50;99.90;;;;;;5066063;28;20073;-58
2021/09/01 05:45:56;;;;;;;38.40;7.50;;;27.40;99.90;;;;;;5065401;28;20169;-56
2021/09/01 05:48:23;;;;;;;42.58;6.95;;;27.40;99.90;;;;;;5068974;28;20079;-57
2021/09/01 05:50:55;;;;;;;34.42;7.78;;;27.40;99.90;;;;;;5064283;28;20069;-57
2021/09/01 05:53:23;;;;;;;32.50;7.05;;;27.30;99.90;;;;;;5065775;28;20077;-59
2021/09/01 05:55:52;;;;;;;37.05;6.57;;;27.40;99.90;;;;;;5064808;28;20097;-57
2021/09/01 05:58:19;;;;;;;40.28;7.25;;;27.40;99.90;;;;;;5067292;28;20111;-56
2021/09/01 06:00:53;;;;;;;34.80;6.95;;;27.40;99.90;;;;;;5062835;28;20077;-56
2021/09/01 06:03:33;;;;;;;41.72;7.20;;;27.50;99.90;;;;;;5065132;28;20100;-56
2021/09/01 06:06:02;;;;;;;42.75;7.55;;;27.40;99.90;;;;;;5067692;28;20095;-55
2021/09/01 06:08:35;;;;;;;40.72;7.55;;;27.40;99.90;;;;;;5062414;28;20069;-56
2021/09/01 06:11:04;;;;;;;39.17;8.07;;;27.40;99.90;;;;;;5066761;28;20130;-57
2021/09/01 06:13:31;;;;;;;34.47;6.90;;;27.40;99.90;;;;;;5067090;28;20076;-58
2021/09/01 06:15:57;;;;;;;32.45;6.03;;;27.40;99.90;;;;;;5066185;28;20088;-57
2021/09/01 06:18:25;;;;;;;35.25;7.22;;;27.30;99.90;;;;;;5062158;28;20081;-57
2021/09/01 06:20:54;;;;;;;41.95;7.32;;;27.30;99.90;;;;;;5067326;28;20172;-56
2021/09/01 06:23:21;;;;;;;28.15;6.60;;;27.30;99.90;;;;;;5068652;28;20480;-58
2021/09/01 06:25:48;;;;;;;31.83;6.90;;;27.30;99.90;;;;;;5063293;28;20104;-57
2021/09/01 06:28:14;;;;;;;25.83;6.13;;;27.30;99.90;;;;;;5064088;28;20081;-57
2021/09/01 06:30:41;;;;;;;29.23;5.80;;;27.40;99.90;;;;;;5066441;28;20069;-57
2021/09/01 06:33:07;;;;;;;30.30;6.78;;;27.40;99.90;;;;;;5066123;28;20105;-58
2021/09/01 06:35:34;;;;;;;34.03;6.80;;;27.50;99.90;;;;;;5064423;28;20074;-59
2021/09/01 06:38:01;;;;;;;37.35;7.40;;;27.40;99.90;;;;;;5066215;28;20085;-55
2021/09/01 06:40:28;;;;;;;27.05;5.70;;;27.40;99.90;;;;;;5068056;28;20073;-58
2021/09/01 06:42:55;;;;;;;28.48;6.20;;;27.50;99.90;;;;;;5060180;28;20154;-57
2021/09/01 06:45:21;;;;;;;33.45;6.53;;;27.40;99.90;;;;;;5063554;28;20179;-53
2021/09/01 06:47:50;;;;;;;38.38;6.82;;;27.40;99.90;;;;;;5062883;28;20082;-59
2021/09/01 06:50:19;;;;;;;39.35;8.57;;;27.40;99.90;;;;;;5061159;28;20107;-55
2021/09/01 06:52:47;;;;;;;39.80;6.95;;;27.50;99.90;;;;;;5065251;28;20094;-57
2021/09/01 06:55:14;;;;;;;33.65;6.97;;;27.60;99.90;;;;;;5063101;28;20084;-56
2021/09/01 06:57:44;;;;;;;37.53;6.43;;;27.60;99.90;;;;;;5067630;28;20158;-57
2021/09/01 07:00:13;;;;;;;34.63;7.18;;;27.60;99.90;;;;;;5064551;28;20093;-58
2021/09/01 07:02:40;;;;;;;35.08;6.68;;;27.50;99.90;;;;;;5064474;28;20084;-58
2021/09/01 07:05:11;;;;;;;34.47;6.72;;;27.60;99.90;;;;;;5063231;28;20091;-58
2021/09/01 07:07:37;;;;;;;33.00;6.43;;;27.50;99.90;;;;;;5064838;28;20114;-54
2021/09/01 07:10:05;;;;;;;39.85;5.53;;;27.50;99.90;;;;;;5066072;28;20570;-55
2021/09/01 07:12:31;;;;;;;29.67;5.60;;;27.40;99.90;;;;;;5065350;28;20077;-56
2021/09/01 07:14:58;;;;;;;30.90;5.43;;;27.40;99.90;;;;;;5063169;28;20074;-56
2021/09/01 07:17:24;;;;;;;25.20;5.38;;;27.30;99.90;;;;;;5066346;28;20173;-56
2021/09/01 07:19:50;;;;;;;25.42;4.95;;;27.40;99.90;;;;;;5064530;28;20073;-56
2021/09/01 07:22:17;;;;;;;23.40;5.03;;;27.40;99.90;;;;;;5066622;28;20077;-55
2021/09/01 07:24:43;;;;;;;26.85;5.38;;;27.30;99.90;;;;;;5064679;28;20092;-55
2021/09/01 07:27:10;;;;;;;26.23;5.13;;;27.30;99.90;;;;;;5063034;28;20088;-56
2021/09/01 07:29:36;;;;;;;36.00;5.85;;;27.30;99.90;;;;;;5062231;28;20557;-58
2021/09/01 07:32:03;;;;;;;19.60;5.25;;;27.30;99.90;;;;;;5066675;28;20090;-56
2021/09/01 07:34:30;;;;;;;31.45;5.78;;;27.30;99.90;;;;;;5065309;28;20077;-56
2021/09/01 07:36:56;;;;;;;28.85;6.57;;;27.30;99.90;;;;;;5061018;28;20101;-58
2021/09/01 07:39:24;;;;;;;33.67;5.80;;;27.40;99.90;;;;;;5062247;28;20080;-57
2021/09/01 07:41:50;;;;;;;37.85;6.40;;;27.30;99.90;;;;;;5067417;28;20425;-57
2021/09/01 07:44:17;;;;;;;39.47;6.50;;;27.20;99.90;;;;;;5063426;28;20123;-56
2021/09/01 07:46:45;;;;;;;28.27;6.00;;;27.30;99.90;;;;;;5065033;28;20473;-55
2021/09/01 07:49:11;;;;;;;24.42;6.00;;;27.20;99.90;;;;;;5061765;28;20499;-55
2021/09/01 07:51:38;;;;;;;38.95;6.90;;;27.20;99.90;;;;;;5065197;28;20202;-57
2021/09/01 07:54:04;;;;;;;34.33;7.63;;;26.90;99.90;;;;;;5064567;28;20162;-58
2021/09/01 07:56:31;;;;;;;36.13;7.65;;;26.90;99.90;;;;;;5061619;28;20204;-55
2021/09/01 07:58:58;;;;;;;43.72;7.30;;;26.90;99.90;;;;;;5048562;28;20434;-54
2021/09/01 08:01:24;;;;;;;40.30;8.48;;;26.80;99.90;;;;;;5062556;28;20099;-58
2021/09/01 08:03:50;;;;;;;43.22;9.10;;;26.80;99.90;;;;;;5060775;28;20171;-56
2021/09/01 08:06:17;;;;;;;39.30;8.68;;;26.90;99.90;;;;;;5063753;28;20170;-57
2021/09/01 08:08:43;;;;;;;40.72;8.52;;;26.90;99.90;;;;;;5064037;28;20155;-57
2021/09/01 08:11:10;;;;;;;37.97;8.68;;;26.90;99.90;;;;;;5064719;28;20130;-57
2021/09/01 08:13:36;;;;;;;42.08;8.40;;;26.90;99.90;;;;;;5060649;28;20526;-56
2021/09/01 08:16:03;;;;;;;34.47;8.23;;;26.90;99.90;;;;;;5063962;28;20101;-55
2021/09/01 08:18:30;;;;;;;35.33;7.93;;;26.70;99.90;;;;;;5061089;28;20563;-56
2021/09/01 08:20:56;;;;;;;44.00;9.15;;;26.70;99.90;;;;;;5064277;28;20113;-55
2021/09/01 08:23:22;;;;;;;28.85;7.05;;;26.60;99.90;;;;;;5066963;28;20529;-56
2021/09/01 08:25:49;;;;;;;38.85;8.90;;;26.50;99.90;;;;;;5059928;28;20070;-54
2021/09/01 08:28:15;;;;;;;29.58;7.43;;;26.60;99.90;;;;;;5059946;28;20080;-56
2021/09/01 08:30:42;;;;;;;31.60;6.70;;;26.60;99.90;;;;;;5064042;28;20069;-58
2021/09/01 08:33:09;;;;;;;26.85;6.35;;;26.60;99.90;;;;;;5061297;28;20172;-58
2021/09/01 08:35:35;;;;;;;30.70;6.57;;;26.50;99.90;;;;;;5063813;28;20127;-55
2021/09/01 08:38:03;;;;;;;23.70;5.53;;;26.50;99.90;;;;;;5064416;28;20499;-57
2021/09/01 08:40:30;;;;;;;28.25;5.55;;;26.50;99.90;;;;;;5060781;28;20069;-54
2021/09/01 08:42:57;;;;;;;31.95;6.15;;;26.60;99.90;;;;;;5058884;28;20112;-53
2021/09/01 08:45:24;;;;;;;33.03;6.35;;;26.50;99.90;;;;;;5064325;28;20076;-55
2021/09/01 08:47:52;;;;;;;29.20;5.10;;;26.60;99.90;;;;;;5064536;28;20080;-54
2021/09/01 08:50:18;;;;;;;24.13;5.55;;;26.60;99.90;;;;;;5062113;28;20069;-56
2021/09/01 08:52:45;;;;;;;27.42;5.82;;;26.60;99.90;;;;;;5063068;28;20172;-58
2021/09/01 08:55:15;;;;;;;22.27;5.20;;;26.60;99.90;;;;;;5057299;28;20069;-56
2021/09/01 08:57:42;;;;;;;22.00;4.85;;;26.60;99.90;;;;;;5062993;28;20112;-54
2021/09/01 09:00:10;;;;;;;24.95;5.03;;;26.60;99.90;;;;;;5062243;28;20077;-57
2021/09/01 09:02:36;;;;;;;31.15;5.30;;;26.70;99.90;;;;;;5061901;28;20099;-54
2021/09/01 09:05:08;;;;;;;16.70;4.00;;;26.80;99.90;;;;;;5063660;28;20526;-55
2021/09/01 09:07:56;;;;;;;19.40;4.75;;;26.70;99.90;;;;;;5061579;28;20101;-57
2021/09/01 09:10:32;;;;;;;22.50;4.90;;;26.70;99.90;;;;;;5066496;28;20092;-56
2021/09/01 09:13:03;;;;;;;20.38;5.05;;;26.70;99.90;;;;;;5064985;28;20069;-57
2021/09/01 09:15:30;;;;;;;26.58;5.78;;;26.70;99.90;;;;;;5065407;28;20108;-53
2021/09/01 09:17:57;;;;;;;25.55;5.25;;;26.70;99.90;;;;;;5065491;28;20101;-53
2021/09/01 09:20:34;;;;;;;20.25;5.00;;;26.80;99.90;;;;;;5062999;28;20550;-51
2021/09/01 09:23:06;;;;;;;20.65;5.35;;;26.60;99.90;;;;;;5065164;28;20131;-55
2021/09/01 09:25:34;;;;;;;16.90;5.10;;;26.60;99.90;;;;;;5064079;28;20114;-57
2021/09/01 09:28:02;;;;;;;20.45;5.10;;;26.70;99.90;;;;;;5063189;28;20088;-56
2021/09/01 09:30:37;;;;;;;22.45;4.65;;;26.70;99.90;;;;;;5063463;28;20127;-56
2021/09/01 09:33:04;;;;;;;23.60;4.90;;;26.80;99.90;;;;;;5063791;28;20166;-55
2021/09/01 09:36:00;;;;;;;22.40;4.75;;;26.80;99.90;;;;;;5067109;28;20102;-56
2021/09/01 09:38:35;;;;;;;21.63;4.63;;;26.90;99.90;;;;;;5066383;28;20078;-53
2021/09/01 09:41:05;;;;;;;19.58;5.30;;;26.80;99.90;;;;;;5065197;28;20077;-52
2021/09/01 09:43:32;;;;;;;18.35;4.80;;;26.70;99.90;;;;;;5067090;28;20077;-54
2021/09/01 09:46:01;;;;;;;17.50;5.13;;;26.70;99.90;;;;;;5064066;28;20080;-56
2021/09/01 09:48:31;;;;;;;19.35;4.93;;;26.70;99.90;;;;;;5064195;28;20162;-55
2021/09/01 09:51:00;;;;;;;21.90;5.22;;;26.70;99.90;;;;;;5068250;28;20076;-57
2021/09/01 09:53:31;;;;;;;17.30;4.97;;;26.70;99.90;;;;;;5066855;28;20077;-56
2021/09/01 09:56:08;;;;;;;20.15;5.07;;;26.80;99.90;;;;;;5066392;28;20069;-58
2021/09/01 09:58:36;;;;;;;;;;;26.80;99.90;;;;;;5065294;28;20069;-56
2021/09/01 10:01:07;;;;;;;20.52;4.88;;;26.90;99.90;;;;;;5065886;28;20098;-58
2021/09/01 10:03:34;;;;;;;18.90;5.35;;;26.80;99.90;;;;;;5070158;28;20080;-58
2021/09/01 10:06:06;;;;;;;24.02;5.28;;;26.90;99.90;;;;;;5063363;28;20077;-54
2021/09/01 10:08:34;;;;;;;15.27;4.78;;;26.90;99.90;;;;;;5061005;28;20073;-57
2021/09/01 10:11:06;;;;;;;19.48;5.53;;;26.80;99.90;;;;;;5066327;28;20491;-55
2021/09/01 10:13:33;;;;;;;18.77;5.10;;;26.90;99.90;;;;;;5061403;28;20069;-55
2021/09/01 10:16:05;;;;;;;19.75;5.35;;;26.90;99.90;;;;;;5063112;28;20190;-53
2021/09/01 10:18:33;;;;;;;19.83;5.75;;;26.90;99.90;;;;;;5063894;28;20077;-58
2021/09/01 10:21:01;;;;;;;21.05;5.60;;;26.80;99.90;;;;;;5067842;28;20081;-53
2021/09/01 10:23:46;;;;;;;24.05;6.18;;;26.80;99.90;;;;;;5067832;28;20080;-57
2021/09/01 10:26:32;;;;;;;24.30;5.88;;;26.80;99.90;;;;;;5061985;28;20090;-57
2021/09/01 10:29:00;;;;;;;22.75;5.72;;;26.70;99.90;;;;;;5065232;28;20069;-58
2021/09/01 10:31:32;;;;;;;25.75;6.95;;;26.70;99.90;;;;;;5067471;28;20530;-57
2021/09/01 10:34:02;;;;;;;17.98;5.55;;;26.70;99.90;;;;;;5064758;28;20139;-53
2021/09/01 10:36:29;;;;;;;21.17;5.53;;;26.70;99.90;;;;;;5060384;28;20093;-56
2021/09/01 10:39:08;;;;;;;18.23;6.00;;;26.70;99.90;;;;;;5063102;28;20079;-55
2021/09/01 10:41:37;;;;;;;18.33;5.25;;;26.70;99.90;;;;;;5066549;28;20069;-53
2021/09/01 10:44:10;;;;;;;30.52;6.10;;;26.60;99.90;;;;;;5061454;28;20150;-57
2021/09/01 10:46:54;;;;;;;23.10;5.03;;;26.60;99.90;;;;;;5063736;28;20120;-57
2021/09/01 10:49:26;;;;;;;15.52;4.88;;;26.70;99.90;;;;;;5064804;28;20065;-54
2021/09/01 10:51:55;;;;;;;12.27;4.18;;;26.70;99.90;;;;;;5066282;28;20539;-57
2021/09/01 10:54:35;;;;;;;15.38;4.35;;;26.80;99.90;;;;;;5065643;28;20081;-53
2021/09/01 10:57:05;;;;;;;18.15;5.00;;;26.80;99.90;;;;;;5064447;28;20116;-56
2021/09/01 10:59:40;;;;;;;13.63;4.47;;;26.80;99.90;;;;;;5063172;28;20077;-55
2021/09/01 11:02:07;;;;;;;17.67;4.85;;;26.90;99.90;;;;;;5062513;28;20069;-52
2021/09/01 11:04:34;;;;;;;15.38;4.57;;;26.90;99.90;;;;;;5062601;28;20445;-56
2021/09/01 11:07:06;;;;;;;17.70;4.95;;;26.80;99.90;;;;;;5063808;28;20073;-57
2021/09/01 11:09:33;;;;;;;12.68;4.50;;;26.80;99.90;;;;;;5062392;28;20073;-55
2021/09/01 11:12:00;;;;;;;12.00;4.38;;;26.80;99.90;;;;;;5064252;28;20451;-57
2021/09/01 11:14:37;;;;;;;14.52;4.53;;;26.90;99.90;;;;;;5061375;28;20099;-55
2021/09/01 11:17:12;;;;;;;16.30;4.53;;;26.70;99.90;;;;;;5061280;28;20096;-56
2021/09/01 11:19:40;;;;;;;12.93;4.18;;;26.70;99.90;;;;;;5060898;28;20261;-56
2021/09/01 11:22:15;;;;;;;10.23;4.15;;;26.70;99.90;;;;;;5064988;28;20077;-54
2021/09/01 11:24:43;;;;;;;12.07;4.88;;;26.70;99.90;;;;;;5066234;28;21278;-56
2021/09/01 11:27:13;;;;;;;15.25;4.43;;;26.70;99.90;;;;;;5062788;28;20077;-56
2021/09/01 11:29:41;;;;;;;16.02;4.25;;;26.70;99.90;;;;;;5059854;28;20091;-56
2021/09/01 11:32:07;;;;;;;13.07;4.93;;;26.60;99.90;;;;;;5062230;28;20100;-56
2021/09/01 11:34:34;;;;;;;7.32;4.05;;;26.60;99.90;;;;;;5066697;28;20073;-56
2021/09/01 11:37:02;;;;;;;17.08;4.97;;;26.60;99.90;;;;;;5064737;28;20097;-55
2021/09/01 11:39:29;;;;;;;14.45;4.22;;;26.60;99.90;;;;;;5062279;28;20104;-56
2021/09/01 11:42:03;;;;;;;17.02;4.47;;;26.70;99.90;;;;;;5065313;28;20557;-54
2021/09/01 11:44:30;;;;;;;12.10;5.00;;;26.70;99.90;;;;;;5066741;28;20072;-54
2021/09/01 11:46:57;;;;;;;15.27;4.78;;;26.80;99.90;;;;;;5066732;28;20100;-58
2021/09/01 11:49:23;;;;;;;18.45;5.18;;;26.80;99.90;;;;;;5059756;28;20073;-57
2021/09/01 11:51:50;;;;;;;16.73;5.20;;;26.80;99.90;;;;;;5064841;28;20155;-57
2021/09/01 11:54:17;;;;;;;16.38;4.82;;;26.80;99.90;;;;;;5062816;28;20088;-57
2021/09/01 11:56:44;;;;;;;13.55;4.50;;;26.80;99.90;;;;;;5060535;28;20124;-57
2021/09/01 11:59:12;;;;;;;12.95;5.10;;;26.80;99.90;;;;;;5062293;28;20073;-55
2021/09/01 12:01:50;;;;;;;15.25;5.18;;;26.70;99.90;;;;;;5065034;28;20074;-52
2021/09/01 12:04:19;;;;;;;12.32;4.75;;;26.70;99.90;;;;;;5063618;28;20100;-57
2021/09/01 12:06:57;;;;;;;14.07;5.03;;;26.60;99.90;;;;;;5062273;28;20081;-57
2021/09/01 12:09:26;;;;;;;14.40;4.93;;;26.70;99.90;;;;;;5064247;28;20072;-57
2021/09/01 12:11:57;;;;;;;17.60;5.50;;;26.60;99.90;;;;;;5064291;28;20124;-56
2021/09/01 12:14:34;;;;;;;15.52;5.20;;;26.60;99.90;;;;;;5065255;28;20125;-55
2021/09/01 12:17:23;;;;;;;18.20;5.65;;;26.70;99.90;;;;;;5066505;28;20105;-58
2021/09/01 12:19:58;;;;;;;17.23;5.70;;;26.80;99.90;;;;;;5064408;28;20545;-54
2021/09/01 12:22:36;;;;;;;21.25;6.45;;;26.90;99.90;;;;;;5064387;28;20084;-55
2021/09/01 12:25:08;;;;;;;17.70;7.63;;;26.90;99.90;;;;;;5063938;28;20153;-58
2021/09/01 12:27:40;;;;;;;17.30;6.82;;;26.90;99.90;;;;;;5063470;28;20125;-56
2021/09/01 12:30:10;;;;;;;20.50;7.50;;;26.90;99.90;;;;;;5062760;28;20465;-56
2021/09/01 12:32:38;;;;;;;30.10;9.10;;;26.90;99.90;;;;;;5065004;28;20088;-54
2021/09/01 12:35:09;;;;;;;25.45;9.07;;;26.90;99.90;;;;;;5060515;28;20169;-54
2021/09/01 12:37:38;;;;;;;28.02;9.50;;;27.00;99.90;;;;;;5063205;28;20628;-56
2021/09/01 12:40:12;;;;;;;23.60;8.55;;;27.00;99.90;;;;;;5061522;28;20555;-57
2021/09/01 12:42:43;;;;;;;32.67;10.05;;;26.90;99.90;;;;;;5064319;28;20490;-55
2021/09/01 12:45:15;;;;;;;24.77;10.43;;;26.80;99.90;;;;;;5060785;28;20077;-57
2021/09/01 12:47:56;;;;;;;26.08;8.95;;;26.90;99.90;;;;;;5059531;28;20076;-58
2021/09/01 12:50:31;;;;;;;30.58;10.60;;;26.80;99.90;;;;;;5060682;28;20123;-55
2021/09/01 12:52:59;;;;;;;35.90;10.40;;;26.70;99.90;;;;;;5064072;28;20084;-56
2021/09/01 12:55:46;;;;;;;28.02;10.43;;;26.60;99.90;;;;;;5064617;28;20477;-55
2021/09/01 12:58:13;;;;;;;35.05;11.15;;;26.50;99.90;;;;;;5064142;28;20088;-55
2021/09/01 13:00:40;;;;;;;34.60;11.82;;;26.50;99.90;;;;;;5060198;28;20081;-53
2021/09/01 13:03:07;;;;;;;33.17;10.77;;;26.50;99.90;;;;;;5059826;28;20077;-55
2021/09/01 13:05:33;;;;;;;36.42;12.98;;;26.50;99.90;;;;;;5062774;28;20073;-53
2021/09/01 13:08:00;;;;;;;41.63;15.27;;;26.40;99.90;;;;;;5056295;28;21473;-54
2021/09/01 13:10:28;;;;;;;38.58;13.55;;;26.30;99.90;;;;;;5063176;28;20076;-51
2021/09/01 13:12:55;;;;;;;40.55;14.57;;;26.30;99.90;;;;;;5059793;28;20073;-55
2021/09/01 13:15:24;;;;;;;45.92;15.25;;;26.40;99.90;;;;;;5062217;28;20081;-52
2021/09/01 13:17:51;;;;;;;41.63;15.32;;;26.30;99.90;;;;;;5061095;28;20237;-58
2021/09/01 13:20:19;;;;;;;46.17;16.42;;;26.30;99.90;;;;;;5064020;28;20069;-52
2021/09/01 13:22:48;;;;;;;41.65;16.17;;;26.20;99.90;;;;;;5060310;28;20081;-51
2021/09/01 13:25:15;;;;;;;40.60;16.85;;;26.20;99.90;;;;;;5062811;28;20077;-54
2021/09/01 13:27:41;;;;;;;44.38;17.08;;;26.20;99.90;;;;;;5061378;28;20454;-58
2021/09/01 13:30:09;;;;;;;41.42;16.23;;;26.20;99.90;;;;;;5061837;28;20088;-56